Home > Products > Valid Products > FWO

000
SHUS65 KGJT 302021
FWOGJT

DAILY FIRE WEATHER OBSERVATION
NATIONAL WEATHER SERVICE GRAND JUNCTION CO
221 PM MDT WED JUL 30 2014

STATE OF THE WEATHER (W)               2
DRY BULB TEMPERATURE                   78   DEGREES FAHRENHEIT
RELATIVE HUMIDITY (RH)                 42   PERCENT
LIGHTNING ACTIVITY LEVEL
  (LAL - MIDNIGHT TO 2 PM)             1
WIND DIRECTION                         C    DEGREES (C IF CALM)
WIND SPEED                             0    MPH
MAX TEMP (2 PM - 2 PM)                 80   DEGREES FAHRENHEIT
MIN TEMP (2 PM - 2 PM)                 57   DEGREES FAHRENHEIT
MAX RH (2 PM - 2 PM)                   97   PERCENT
MIN RH (2 PM - 2 PM)                   42   PERCENT
PCPN DURATION                          3.0  HOURS
PCPN AMT (2 PM - 2 PM)                 0.14 INCHES
LAL (2 PM - 2 PM)                      5

$$

METAR KGJT 301953Z 00000KT 10SM SCT060 BKN120 26/12 A3016 RMK
      AO2 RAB1856E37 SLP152 SHRA DSNT NW P0000 T02560117




000
SHUS65 KGJT 292020
FWOGJT

DAILY FIRE WEATHER OBSERVATION
NATIONAL WEATHER SERVICE GRAND JUNCTION CO
220 PM MDT TUE JUL 29 2014

STATE OF THE WEATHER (W)               2
DRY BULB TEMPERATURE                   73   DEGREES FAHRENHEIT
RELATIVE HUMIDITY (RH)                 59   PERCENT
LIGHTNING ACTIVITY LEVEL
  (LAL - MIDNIGHT TO 2 PM)             4
WIND DIRECTION                         225  DEGREES (C IF CALM)
WIND SPEED                             5    MPH
MAX TEMP (2 PM - 2 PM)                 87   DEGREES FAHRENHEIT
MIN TEMP (2 PM - 2 PM)                 61   DEGREES FAHRENHEIT
MAX RH (2 PM - 2 PM)                   100  PERCENT
MIN RH (2 PM - 2 PM)                   31   PERCENT
PCPN DURATION                          4.2  HOURS
PCPN AMT (2 PM - 2 PM)                 0.76 INCHES
LAL (2 PM - 2 PM)                      5

$$

METAR KGJT 291953Z 24004KT 10SM CLR 23/14 A3022 RMK AO2 LTG DSNT
      S-NW SLP175 T02280144





000
SHUS65 KGJT 292020
FWOGJT

DAILY FIRE WEATHER OBSERVATION
NATIONAL WEATHER SERVICE GRAND JUNCTION CO
220 PM MDT TUE JUL 29 2014

STATE OF THE WEATHER (W)               2
DRY BULB TEMPERATURE                   73   DEGREES FAHRENHEIT
RELATIVE HUMIDITY (RH)                 59   PERCENT
LIGHTNING ACTIVITY LEVEL
  (LAL - MIDNIGHT TO 2 PM)             4
WIND DIRECTION                         225  DEGREES (C IF CALM)
WIND SPEED                             5    MPH
MAX TEMP (2 PM - 2 PM)                 87   DEGREES FAHRENHEIT
MIN TEMP (2 PM - 2 PM)                 61   DEGREES FAHRENHEIT
MAX RH (2 PM - 2 PM)                   100  PERCENT
MIN RH (2 PM - 2 PM)                   31   PERCENT
PCPN DURATION                          4.2  HOURS
PCPN AMT (2 PM - 2 PM)                 0.76 INCHES
LAL (2 PM - 2 PM)                      5

$$

METAR KGJT 291953Z 24004KT 10SM CLR 23/14 A3022 RMK AO2 LTG DSNT
      S-NW SLP175 T02280144




000
SHUS65 KGJT 282022
FWOGJT

DAILY FIRE WEATHER OBSERVATION
NATIONAL WEATHER SERVICE GRAND JUNCTION CO
222 PM MDT MON JUL 28 2014

STATE OF THE WEATHER (W)               2
DRY BULB TEMPERATURE                   85   DEGREES FAHRENHEIT
RELATIVE HUMIDITY (RH)                 32   PERCENT
LIGHTNING ACTIVITY LEVEL
  (LAL - MIDNIGHT TO 2 PM)             2
WIND DIRECTION                         315  DEGREES (C IF CALM)
WIND SPEED                             8    MPH
MAX TEMP (2 PM - 2 PM)                 96   DEGREES FAHRENHEIT
MIN TEMP (2 PM - 2 PM)                 66   DEGREES FAHRENHEIT
MAX RH (2 PM - 2 PM)                   50   PERCENT
MIN RH (2 PM - 2 PM)                   17   PERCENT
PCPN DURATION                          0.5  HOURS
PCPN AMT (2 PM - 2 PM)                 T    INCHES
LAL (2 PM - 2 PM)                      2

$$

METAR KGJT 281953Z 30007KT 260V320 10SM FEW110 29/11 A3024 RMK
      AO2 SLP162 T02940111





000
SHUS65 KGJT 282022
FWOGJT

DAILY FIRE WEATHER OBSERVATION
NATIONAL WEATHER SERVICE GRAND JUNCTION CO
222 PM MDT MON JUL 28 2014

STATE OF THE WEATHER (W)               2
DRY BULB TEMPERATURE                   85   DEGREES FAHRENHEIT
RELATIVE HUMIDITY (RH)                 32   PERCENT
LIGHTNING ACTIVITY LEVEL
  (LAL - MIDNIGHT TO 2 PM)             2
WIND DIRECTION                         315  DEGREES (C IF CALM)
WIND SPEED                             8    MPH
MAX TEMP (2 PM - 2 PM)                 96   DEGREES FAHRENHEIT
MIN TEMP (2 PM - 2 PM)                 66   DEGREES FAHRENHEIT
MAX RH (2 PM - 2 PM)                   50   PERCENT
MIN RH (2 PM - 2 PM)                   17   PERCENT
PCPN DURATION                          0.5  HOURS
PCPN AMT (2 PM - 2 PM)                 T    INCHES
LAL (2 PM - 2 PM)                      2

$$

METAR KGJT 281953Z 30007KT 260V320 10SM FEW110 29/11 A3024 RMK
      AO2 SLP162 T02940111




    US Dept of Commerce
    National Oceanic and Atmospheric Administration
    National Weather Service
    1325 East West Highway
    Silver Spring, MD 20910
    Page Author: NWS Internet Services Team
Disclaimer
Information Quality
Credits
Glossary
Privacy Policy
Freedom of Information Act (FOIA)
About Us
Career Opportunities